LA HONDA (LAH)

Elevation: 425' · SAN GREGORIO CR basin · Operator: CAL FIRE

Query executed Friday at 22:21:05   clock

Provisional data, subject to change.
Select a sensor type for a plot of data.

Earlier

Date   /   Time   RAIN     TEMP     REL HUM     FUEL MS     FUEL TP     WIND SP     WIND DR     PEAK WS     PEAK WD     SOLAR R     BAT VOL    
(PDT)INCHES   DEG F   %   %   DEG F   MPH   DEG   MPH   DEG   W/M^2   VOLTS  
10/23/2014 22:00 1.04 56 90 16 52 2 79 6 78 0.00 12.9
10/23/2014 23:00 1.04 57 91 18 52 2 92 5 74 0.00 12.8
10/24/2014 00:00 1.04 55 93 19 51 3 89 5 69 0.00 12.8
10/24/2014 01:00 1.04 54 94 21 51 4 72 5 74 0.00 12.8
10/24/2014 02:00 1.04 53 95 21 50 4 80 5 78 0.00 12.8
10/24/2014 03:00 1.04 52 95 22 49 3 73 5 81 0.00 12.8
10/24/2014 04:00 1.04 51 95 23 48 3 74 5 76 0.00 12.8
10/24/2014 05:00 1.04 51 91 23 47 3 72 4 73 0.00 12.7
10/24/2014 06:00 1.04 50 95 23 47 4 76 5 77 0.00 12.7
10/24/2014 07:00 1.04 49 95 23 46 4 76 6 88 0.00 12.7
10/24/2014 08:00 1.04 50 96 25 47 4 79 5 76 17.00 12.8
10/24/2014 09:00 1.04 58 88 25 57 3 89 5 75 172.00 14.7
10/24/2014 10:00 1.04 68 64 24 64 2 226 4 193 320.00 13.8
10/24/2014 11:00 1.04 71 52 18 78 4 216 7 244 457.00 13.9
10/24/2014 12:00 1.04 72 58 13 85 3 262 8 245 555.00 13.7
10/24/2014 13:00 1.04 72 60 9 81 3 271 8 304 600.00 13.7
10/24/2014 14:00 1.04 74 55 10 77 4 293 9 222 588.00 13.6
10/24/2014 15:00 1.04 73 56 10 78 3 264 10 220 527.00 13.5
10/24/2014 16:00 1.04 68 62 9 80 8 241 15 239 402.00 13.6
10/24/2014 17:00 1.04 63 69 9 69 6 237 17 238 210.00 13.8
10/24/2014 18:00 1.04 60 79 10 62 7 211 16 216 37.00 13.4
10/24/2014 19:00 1.04 60 79 11 61 6 212 13 194 1.00 13.2
10/24/2014 20:00 1.04 60 78 12 57 3 190 11 203 0.00 13.1
10/24/2014 21:00 1.04 60 78 14 59 5 186 9 183 0.00 13.0
10/24/2014 22:00 1.04 60 79 14 59 3 108 8 115 0.00 12.9

Later | Latest

Warning! This data is preliminary and subject to revision.

Show LAH Map | 24 Hours LAH Data | Plot all LAH Sensors | Daily LAH Data | LAH Info